sensor_id;sensor_type;location;lat;lon;timestamp;P1;durP1;ratioP1;P2;durP2;ratioP2
9481;SDS011;4779;48.062;11.672;2023-08-21T00:01:33;6.65;;;6.13;;
9481;SDS011;4779;48.062;11.672;2023-08-21T00:04:00;7.10;;;6.50;;
9481;SDS011;4779;48.062;11.672;2023-08-21T00:06:27;7.15;;;6.55;;
9481;SDS011;4779;48.062;11.672;2023-08-21T00:08:54;6.75;;;6.15;;
9481;SDS011;4779;48.062;11.672;2023-08-21T00:11:23;6.60;;;6.10;;
9481;SDS011;4779;48.062;11.672;2023-08-21T00:13:50;7.05;;;6.55;;
9481;SDS011;4779;48.062;11.672;2023-08-21T00:16:17;6.38;;;5.85;;
9481;SDS011;4779;48.062;11.672;2023-08-21T00:18:44;6.65;;;6.05;;
9481;SDS011;4779;48.062;11.672;2023-08-21T00:21:12;6.50;;;6.00;;
9481;SDS011;4779;48.062;11.672;2023-08-21T00:23:39;7.15;;;6.45;;
9481;SDS011;4779;48.062;11.672;2023-08-21T00:26:06;6.75;;;6.10;;
9481;SDS011;4779;48.062;11.672;2023-08-21T00:28:34;6.72;;;6.15;;
9481;SDS011;4779;48.062;11.672;2023-08-21T00:31:01;6.80;;;6.10;;
9481;SDS011;4779;48.062;11.672;2023-08-21T00:33:29;7.10;;;6.50;;
9481;SDS011;4779;48.062;11.672;2023-08-21T00:35:56;6.80;;;6.20;;
9481;SDS011;4779;48.062;11.672;2023-08-21T00:38:23;6.75;;;6.15;;
9481;SDS011;4779;48.062;11.672;2023-08-21T00:40:51;6.88;;;6.28;;
9481;SDS011;4779;48.062;11.672;2023-08-21T00:43:18;6.95;;;6.25;;
9481;SDS011;4779;48.062;11.672;2023-08-21T00:45:47;7.32;;;6.68;;
9481;SDS011;4779;48.062;11.672;2023-08-21T00:48:16;9.10;;;6.65;;
9481;SDS011;4779;48.062;11.672;2023-08-21T00:50:43;7.30;;;6.57;;
9481;SDS011;4779;48.062;11.672;2023-08-21T00:53:11;7.07;;;6.43;;
9481;SDS011;4779;48.062;11.672;2023-08-21T00:55:39;6.93;;;6.25;;
9481;SDS011;4779;48.062;11.672;2023-08-21T00:58:08;7.15;;;6.50;;
9481;SDS011;4779;48.062;11.672;2023-08-21T01:00:36;7.18;;;6.50;;
9481;SDS011;4779;48.062;11.672;2023-08-21T01:03:06;6.78;;;6.18;;
9481;SDS011;4779;48.062;11.672;2023-08-21T01:05:34;6.63;;;6.13;;
9481;SDS011;4779;48.062;11.672;2023-08-21T01:08:04;6.30;;;5.80;;
9481;SDS011;4779;48.062;11.672;2023-08-21T01:10:41;7.57;;;6.88;;
9481;SDS011;4779;48.062;11.672;2023-08-21T01:13:15;6.57;;;6.07;;
9481;SDS011;4779;48.062;11.672;2023-08-21T01:15:48;6.57;;;5.97;;
9481;SDS011;4779;48.062;11.672;2023-08-21T01:18:20;6.70;;;6.10;;
9481;SDS011;4779;48.062;11.672;2023-08-21T01:20:48;6.93;;;6.25;;
9481;SDS011;4779;48.062;11.672;2023-08-21T01:23:30;6.65;;;6.05;;
9481;SDS011;4779;48.062;11.672;2023-08-21T01:25:58;6.80;;;6.20;;
9481;SDS011;4779;48.062;11.672;2023-08-21T01:28:25;6.75;;;6.15;;
9481;SDS011;4779;48.062;11.672;2023-08-21T01:30:54;6.68;;;6.07;;
9481;SDS011;4779;48.062;11.672;2023-08-21T01:33:27;6.47;;;5.85;;
9481;SDS011;4779;48.062;11.672;2023-08-21T01:35:58;6.63;;;5.78;;
9481;SDS011;4779;48.062;11.672;2023-08-21T01:38:29;7.10;;;6.13;;
9481;SDS011;4779;48.062;11.672;2023-08-21T01:40:57;6.45;;;5.90;;
9481;SDS011;4779;48.062;11.672;2023-08-21T01:43:24;6.18;;;5.60;;
9481;SDS011;4779;48.062;11.672;2023-08-21T01:45:51;7.35;;;5.80;;
9481;SDS011;4779;48.062;11.672;2023-08-21T01:48:18;6.03;;;5.53;;
9481;SDS011;4779;48.062;11.672;2023-08-21T01:50:45;6.40;;;5.80;;
9481;SDS011;4779;48.062;11.672;2023-08-21T01:53:12;6.72;;;6.13;;
9481;SDS011;4779;48.062;11.672;2023-08-21T01:55:41;6.72;;;6.05;;
9481;SDS011;4779;48.062;11.672;2023-08-21T01:58:08;6.47;;;5.88;;
9481;SDS011;4779;48.062;11.672;2023-08-21T02:00:35;6.20;;;5.65;;
9481;SDS011;4779;48.062;11.672;2023-08-21T02:03:02;6.50;;;5.90;;
9481;SDS011;4779;48.062;11.672;2023-08-21T02:05:29;6.70;;;5.85;;
9481;SDS011;4779;48.062;11.672;2023-08-21T02:07:56;7.00;;;6.38;;
9481;SDS011;4779;48.062;11.672;2023-08-21T02:10:23;6.65;;;6.00;;
9481;SDS011;4779;48.062;11.672;2023-08-21T02:12:51;6.55;;;5.95;;
9481;SDS011;4779;48.062;11.672;2023-08-21T02:15:19;6.40;;;5.90;;
9481;SDS011;4779;48.062;11.672;2023-08-21T02:17:47;6.97;;;6.28;;
9481;SDS011;4779;48.062;11.672;2023-08-21T02:20:14;6.97;;;6.28;;
9481;SDS011;4779;48.062;11.672;2023-08-21T02:22:41;6.15;;;5.57;;
9481;SDS011;4779;48.062;11.672;2023-08-21T02:25:08;6.78;;;6.10;;
9481;SDS011;4779;48.062;11.672;2023-08-21T02:27:35;6.93;;;6.22;;
9481;SDS011;4779;48.062;11.672;2023-08-21T02:30:04;7.00;;;6.25;;
9481;SDS011;4779;48.062;11.672;2023-08-21T02:32:33;6.10;;;5.60;;
9481;SDS011;4779;48.062;11.672;2023-08-21T02:35:00;6.30;;;5.68;;
9481;SDS011;4779;48.062;11.672;2023-08-21T02:37:27;6.43;;;5.82;;
9481;SDS011;4779;48.062;11.672;2023-08-21T02:39:54;6.32;;;5.72;;
9481;SDS011;4779;48.062;11.672;2023-08-21T02:42:21;7.15;;;6.28;;
9481;SDS011;4779;48.062;11.672;2023-08-21T02:44:48;6.28;;;5.68;;
9481;SDS011;4779;48.062;11.672;2023-08-21T02:47:17;6.40;;;5.78;;
9481;SDS011;4779;48.062;11.672;2023-08-21T02:49:44;6.10;;;5.60;;
9481;SDS011;4779;48.062;11.672;2023-08-21T02:52:11;5.93;;;5.43;;
9481;SDS011;4779;48.062;11.672;2023-08-21T02:54:38;7.60;;;6.03;;
9481;SDS011;4779;48.062;11.672;2023-08-21T02:57:05;6.50;;;5.88;;
9481;SDS011;4779;48.062;11.672;2023-08-21T02:59:32;6.22;;;5.63;;
9481;SDS011;4779;48.062;11.672;2023-08-21T03:01:59;6.35;;;5.80;;
9481;SDS011;4779;48.062;11.672;2023-08-21T03:04:28;6.10;;;5.60;;
9481;SDS011;4779;48.062;11.672;2023-08-21T03:06:55;7.22;;;5.65;;
9481;SDS011;4779;48.062;11.672;2023-08-21T03:09:22;6.18;;;5.68;;
9481;SDS011;4779;48.062;11.672;2023-08-21T03:11:49;6.43;;;5.90;;
9481;SDS011;4779;48.062;11.672;2023-08-21T03:14:16;6.07;;;5.47;;
9481;SDS011;4779;48.062;11.672;2023-08-21T03:16:43;5.85;;;5.22;;
9481;SDS011;4779;48.062;11.672;2023-08-21T03:19:10;6.28;;;5.43;;
9481;SDS011;4779;48.062;11.672;2023-08-21T03:21:38;6.28;;;5.70;;
9481;SDS011;4779;48.062;11.672;2023-08-21T03:24:05;6.25;;;5.65;;
9481;SDS011;4779;48.062;11.672;2023-08-21T03:26:33;6.25;;;5.75;;
9481;SDS011;4779;48.062;11.672;2023-08-21T03:29:00;6.55;;;6.00;;
9481;SDS011;4779;48.062;11.672;2023-08-21T03:31:27;6.03;;;5.53;;
9481;SDS011;4779;48.062;11.672;2023-08-21T03:33:56;6.70;;;6.10;;
9481;SDS011;4779;48.062;11.672;2023-08-21T03:36:23;6.40;;;5.80;;
9481;SDS011;4779;48.062;11.672;2023-08-21T03:38:57;6.70;;;6.10;;
9481;SDS011;4779;48.062;11.672;2023-08-21T03:41:24;6.60;;;5.88;;
9481;SDS011;4779;48.062;11.672;2023-08-21T03:43:51;6.25;;;5.75;;
9481;SDS011;4779;48.062;11.672;2023-08-21T03:46:19;6.47;;;5.88;;
9481;SDS011;4779;48.062;11.672;2023-08-21T03:48:46;6.65;;;5.97;;
9481;SDS011;4779;48.062;11.672;2023-08-21T03:51:13;6.10;;;5.47;;
9481;SDS011;4779;48.062;11.672;2023-08-21T03:53:40;5.95;;;5.45;;
9481;SDS011;4779;48.062;11.672;2023-08-21T03:56:08;5.88;;;5.38;;
9481;SDS011;4779;48.062;11.672;2023-08-21T03:58:35;6.40;;;5.80;;
9481;SDS011;4779;48.062;11.672;2023-08-21T04:01:02;6.10;;;5.50;;
9481;SDS011;4779;48.062;11.672;2023-08-21T04:03:30;6.50;;;5.90;;
9481;SDS011;4779;48.062;11.672;2023-08-21T04:05:56;6.82;;;6.07;;
9481;SDS011;4779;48.062;11.672;2023-08-21T04:08:24;6.72;;;6.07;;
9481;SDS011;4779;48.062;11.672;2023-08-21T04:10:51;6.78;;;6.05;;
9481;SDS011;4779;48.062;11.672;2023-08-21T04:13:23;6.22;;;5.63;;
9481;SDS011;4779;48.062;11.672;2023-08-21T04:15:53;6.25;;;5.65;;
9481;SDS011;4779;48.062;11.672;2023-08-21T04:18:21;6.63;;;6.10;;
9481;SDS011;4779;48.062;11.672;2023-08-21T04:20:49;7.47;;;6.00;;
9481;SDS011;4779;48.062;11.672;2023-08-21T04:23:16;7.13;;;6.07;;
9481;SDS011;4779;48.062;11.672;2023-08-21T04:25:43;7.15;;;6.45;;
9481;SDS011;4779;48.062;11.672;2023-08-21T04:28:10;6.75;;;6.15;;
9481;SDS011;4779;48.062;11.672;2023-08-21T04:30:41;7.00;;;6.30;;
9481;SDS011;4779;48.062;11.672;2023-08-21T04:33:08;7.00;;;6.22;;
9481;SDS011;4779;48.062;11.672;2023-08-21T04:35:38;6.28;;;5.68;;
9481;SDS011;4779;48.062;11.672;2023-08-21T04:38:05;7.00;;;5.72;;
9481;SDS011;4779;48.062;11.672;2023-08-21T04:40:33;6.47;;;5.85;;
9481;SDS011;4779;48.062;11.672;2023-08-21T04:43:00;7.18;;;6.20;;
9481;SDS011;4779;48.062;11.672;2023-08-21T04:45:27;6.43;;;5.85;;
9481;SDS011;4779;48.062;11.672;2023-08-21T04:48:05;6.20;;;5.70;;
9481;SDS011;4779;48.062;11.672;2023-08-21T04:50:32;7.22;;;5.85;;
9481;SDS011;4779;48.062;11.672;2023-08-21T04:52:59;7.35;;;6.03;;
9481;SDS011;4779;48.062;11.672;2023-08-21T04:55:26;6.50;;;5.88;;
9481;SDS011;4779;48.062;11.672;2023-08-21T04:57:53;7.30;;;6.22;;
9481;SDS011;4779;48.062;11.672;2023-08-21T05:00:23;6.78;;;5.85;;
9481;SDS011;4779;48.062;11.672;2023-08-21T05:02:50;6.68;;;5.93;;
9481;SDS011;4779;48.062;11.672;2023-08-21T05:05:19;8.00;;;6.25;;
9481;SDS011;4779;48.062;11.672;2023-08-21T05:07:46;7.95;;;6.60;;
9481;SDS011;4779;48.062;11.672;2023-08-21T05:10:13;9.63;;;6.35;;
9481;SDS011;4779;48.062;11.672;2023-08-21T05:12:40;6.95;;;6.28;;
9481;SDS011;4779;48.062;11.672;2023-08-21T05:15:13;6.95;;;6.22;;
9481;SDS011;4779;48.062;11.672;2023-08-21T05:17:41;6.13;;;5.60;;
9481;SDS011;4779;48.062;11.672;2023-08-21T05:20:08;8.50;;;6.55;;
9481;SDS011;4779;48.062;11.672;2023-08-21T05:22:40;8.98;;;6.57;;
9481;SDS011;4779;48.062;11.672;2023-08-21T05:25:07;9.05;;;6.15;;
9481;SDS011;4779;48.062;11.672;2023-08-21T05:27:35;9.02;;;7.35;;
9481;SDS011;4779;48.062;11.672;2023-08-21T05:30:02;8.88;;;7.05;;
9481;SDS011;4779;48.062;11.672;2023-08-21T05:32:30;11.65;;;7.10;;
9481;SDS011;4779;48.062;11.672;2023-08-21T05:34:57;9.13;;;6.82;;
9481;SDS011;4779;48.062;11.672;2023-08-21T05:37:24;7.72;;;6.75;;
9481;SDS011;4779;48.062;11.672;2023-08-21T05:39:53;8.57;;;6.72;;
9481;SDS011;4779;48.062;11.672;2023-08-21T05:42:20;8.40;;;7.10;;
9481;SDS011;4779;48.062;11.672;2023-08-21T05:44:47;7.85;;;6.95;;
9481;SDS011;4779;48.062;11.672;2023-08-21T05:47:14;6.47;;;5.88;;
9481;SDS011;4779;48.062;11.672;2023-08-21T05:49:41;8.68;;;6.72;;
9481;SDS011;4779;48.062;11.672;2023-08-21T05:52:09;8.20;;;6.22;;
9481;SDS011;4779;48.062;11.672;2023-08-21T05:54:36;8.32;;;6.57;;
9481;SDS011;4779;48.062;11.672;2023-08-21T05:57:05;8.65;;;6.22;;
9481;SDS011;4779;48.062;11.672;2023-08-21T05:59:32;10.73;;;6.93;;
9481;SDS011;4779;48.062;11.672;2023-08-21T06:01:59;8.20;;;6.30;;
9481;SDS011;4779;48.062;11.672;2023-08-21T06:04:26;6.93;;;6.13;;
9481;SDS011;4779;48.062;11.672;2023-08-21T06:06:53;7.68;;;5.55;;
9481;SDS011;4779;48.062;11.672;2023-08-21T06:09:21;6.28;;;5.47;;
9481;SDS011;4779;48.062;11.672;2023-08-21T06:11:48;6.53;;;5.93;;
9481;SDS011;4779;48.062;11.672;2023-08-21T06:14:16;7.40;;;5.57;;
9481;SDS011;4779;48.062;11.672;2023-08-21T06:16:43;6.05;;;5.43;;
9481;SDS011;4779;48.062;11.672;2023-08-21T06:19:10;6.10;;;5.50;;
9481;SDS011;4779;48.062;11.672;2023-08-21T06:21:37;7.88;;;5.30;;
9481;SDS011;4779;48.062;11.672;2023-08-21T06:24:04;6.22;;;5.18;;
9481;SDS011;4779;48.062;11.672;2023-08-21T06:26:32;7.85;;;5.50;;
9481;SDS011;4779;48.062;11.672;2023-08-21T06:28:59;7.97;;;5.30;;
9481;SDS011;4779;48.062;11.672;2023-08-21T06:31:27;6.18;;;5.28;;
9481;SDS011;4779;48.062;11.672;2023-08-21T06:33:54;5.70;;;5.13;;
9481;SDS011;4779;48.062;11.672;2023-08-21T06:36:24;9.38;;;5.15;;
9481;SDS011;4779;48.062;11.672;2023-08-21T06:38:51;6.00;;;5.40;;
9481;SDS011;4779;48.062;11.672;2023-08-21T06:41:18;6.90;;;5.35;;
9481;SDS011;4779;48.062;11.672;2023-08-21T06:43:45;7.55;;;5.55;;
9481;SDS011;4779;48.062;11.672;2023-08-21T06:46:12;6.10;;;5.50;;
9481;SDS011;4779;48.062;11.672;2023-08-21T06:48:41;6.20;;;5.40;;
9481;SDS011;4779;48.062;11.672;2023-08-21T06:51:09;6.65;;;5.03;;
9481;SDS011;4779;48.062;11.672;2023-08-21T06:53:36;5.95;;;5.03;;
9481;SDS011;4779;48.062;11.672;2023-08-21T06:56:03;5.95;;;5.35;;
9481;SDS011;4779;48.062;11.672;2023-08-21T06:58:30;6.00;;;5.40;;
9481;SDS011;4779;48.062;11.672;2023-08-21T07:00:57;8.25;;;5.15;;
9481;SDS011;4779;48.062;11.672;2023-08-21T07:03:26;8.82;;;5.60;;
9481;SDS011;4779;48.062;11.672;2023-08-21T07:05:54;8.15;;;5.47;;
9481;SDS011;4779;48.062;11.672;2023-08-21T07:08:22;5.78;;;5.05;;
9481;SDS011;4779;48.062;11.672;2023-08-21T07:10:49;8.02;;;4.85;;
9481;SDS011;4779;48.062;11.672;2023-08-21T07:13:16;5.75;;;5.15;;
9481;SDS011;4779;48.062;11.672;2023-08-21T07:15:43;7.15;;;5.50;;
9481;SDS011;4779;48.062;11.672;2023-08-21T07:18:10;7.18;;;5.40;;
9481;SDS011;4779;48.062;11.672;2023-08-21T07:20:37;5.50;;;5.00;;
9481;SDS011;4779;48.062;11.672;2023-08-21T07:23:06;5.35;;;4.85;;
9481;SDS011;4779;48.062;11.672;2023-08-21T07:25:33;5.85;;;5.22;;
9481;SDS011;4779;48.062;11.672;2023-08-21T07:28:00;6.35;;;5.18;;
9481;SDS011;4779;48.062;11.672;2023-08-21T07:30:27;5.93;;;5.03;;
9481;SDS011;4779;48.062;11.672;2023-08-21T07:32:54;7.22;;;5.22;;
9481;SDS011;4779;48.062;11.672;2023-08-21T07:35:21;5.88;;;5.35;;
9481;SDS011;4779;48.062;11.672;2023-08-21T07:37:48;6.15;;;5.05;;
9481;SDS011;4779;48.062;11.672;2023-08-21T07:40:16;7.32;;;5.60;;
9481;SDS011;4779;48.062;11.672;2023-08-21T07:42:43;6.35;;;5.15;;
9481;SDS011;4779;48.062;11.672;2023-08-21T07:45:10;7.32;;;5.45;;
9481;SDS011;4779;48.062;11.672;2023-08-21T07:47:37;6.55;;;5.30;;
9481;SDS011;4779;48.062;11.672;2023-08-21T07:50:05;5.60;;;5.10;;
9481;SDS011;4779;48.062;11.672;2023-08-21T07:52:33;7.15;;;4.90;;
9481;SDS011;4779;48.062;11.672;2023-08-21T07:55:00;6.18;;;4.93;;
9481;SDS011;4779;48.062;11.672;2023-08-21T07:57:29;5.90;;;5.30;;
9481;SDS011;4779;48.062;11.672;2023-08-21T07:59:56;5.78;;;5.18;;
9481;SDS011;4779;48.062;11.672;2023-08-21T08:02:23;5.97;;;5.03;;
9481;SDS011;4779;48.062;11.672;2023-08-21T08:04:51;6.22;;;5.65;;
9481;SDS011;4779;48.062;11.672;2023-08-21T08:07:18;6.18;;;5.20;;
9481;SDS011;4779;48.062;11.672;2023-08-21T08:09:45;5.85;;;5.05;;
9481;SDS011;4779;48.062;11.672;2023-08-21T08:12:12;6.32;;;5.30;;
9481;SDS011;4779;48.062;11.672;2023-08-21T08:14:41;5.60;;;5.10;;
9481;SDS011;4779;48.062;11.672;2023-08-21T08:17:08;5.90;;;5.40;;
9481;SDS011;4779;48.062;11.672;2023-08-21T08:19:35;6.85;;;5.07;;
9481;SDS011;4779;48.062;11.672;2023-08-21T08:22:03;7.70;;;5.60;;
9481;SDS011;4779;48.062;11.672;2023-08-21T08:24:30;6.22;;;5.43;;
9481;SDS011;4779;48.062;11.672;2023-08-21T08:26:57;8.27;;;5.78;;
9481;SDS011;4779;48.062;11.672;2023-08-21T08:29:24;6.32;;;5.22;;
9481;SDS011;4779;48.062;11.672;2023-08-21T08:31:52;6.47;;;5.28;;
9481;SDS011;4779;48.062;11.672;2023-08-21T08:34:19;7.40;;;5.03;;
9481;SDS011;4779;48.062;11.672;2023-08-21T08:36:46;6.35;;;5.72;;
9481;SDS011;4779;48.062;11.672;2023-08-21T08:39:13;5.38;;;4.88;;
9481;SDS011;4779;48.062;11.672;2023-08-21T08:41:43;7.40;;;5.63;;
9481;SDS011;4779;48.062;11.672;2023-08-21T08:44:15;6.20;;;5.60;;
9481;SDS011;4779;48.062;11.672;2023-08-21T08:46:43;5.63;;;5.13;;
9481;SDS011;4779;48.062;11.672;2023-08-21T08:49:11;5.32;;;4.93;;
9481;SDS011;4779;48.062;11.672;2023-08-21T08:51:39;5.65;;;4.95;;
9481;SDS011;4779;48.062;11.672;2023-08-21T08:54:08;5.80;;;5.32;;
9481;SDS011;4779;48.062;11.672;2023-08-21T08:56:37;5.65;;;5.10;;
9481;SDS011;4779;48.062;11.672;2023-08-21T08:59:05;5.40;;;4.95;;
9481;SDS011;4779;48.062;11.672;2023-08-21T09:01:34;5.72;;;5.15;;
9481;SDS011;4779;48.062;11.672;2023-08-21T09:04:02;5.18;;;4.78;;
9481;SDS011;4779;48.062;11.672;2023-08-21T09:06:30;6.05;;;5.38;;
9481;SDS011;4779;48.062;11.672;2023-08-21T09:08:59;5.43;;;4.93;;
9481;SDS011;4779;48.062;11.672;2023-08-21T09:11:26;4.53;;;4.15;;
9481;SDS011;4779;48.062;11.672;2023-08-21T09:13:54;5.47;;;4.88;;
9481;SDS011;4779;48.062;11.672;2023-08-21T09:16:22;5.18;;;4.72;;
9481;SDS011;4779;48.062;11.672;2023-08-21T09:18:51;7.45;;;4.72;;
9481;SDS011;4779;48.062;11.672;2023-08-21T09:21:19;6.47;;;4.22;;
9481;SDS011;4779;48.062;11.672;2023-08-21T09:23:51;4.70;;;4.00;;
9481;SDS011;4779;48.062;11.672;2023-08-21T09:26:23;6.90;;;4.72;;
9481;SDS011;4779;48.062;11.672;2023-08-21T09:28:51;4.65;;;4.25;;
9481;SDS011;4779;48.062;11.672;2023-08-21T09:31:22;5.28;;;4.45;;
9481;SDS011;4779;48.062;11.672;2023-08-21T09:33:54;5.10;;;4.65;;
9481;SDS011;4779;48.062;11.672;2023-08-21T09:36:22;5.43;;;4.90;;
9481;SDS011;4779;48.062;11.672;2023-08-21T09:38:51;4.93;;;4.53;;
9481;SDS011;4779;48.062;11.672;2023-08-21T09:41:19;4.70;;;4.30;;
9481;SDS011;4779;48.062;11.672;2023-08-21T09:43:46;5.10;;;4.28;;
9481;SDS011;4779;48.062;11.672;2023-08-21T09:46:14;6.22;;;4.13;;
9481;SDS011;4779;48.062;11.672;2023-08-21T09:48:41;5.38;;;4.88;;
9481;SDS011;4779;48.062;11.672;2023-08-21T09:51:11;5.07;;;4.57;;
9481;SDS011;4779;48.062;11.672;2023-08-21T09:53:38;4.97;;;4.55;;
9481;SDS011;4779;48.062;11.672;2023-08-21T09:56:07;4.68;;;4.28;;
9481;SDS011;4779;48.062;11.672;2023-08-21T09:58:35;4.82;;;4.38;;
9481;SDS011;4779;48.062;11.672;2023-08-21T10:01:04;4.28;;;3.97;;
9481;SDS011;4779;48.062;11.672;2023-08-21T10:03:38;4.78;;;4.25;;
9481;SDS011;4779;48.062;11.672;2023-08-21T10:06:05;4.65;;;4.25;;
9481;SDS011;4779;48.062;11.672;2023-08-21T10:08:36;4.85;;;4.45;;
9481;SDS011;4779;48.062;11.672;2023-08-21T10:11:05;4.72;;;4.32;;
9481;SDS011;4779;48.062;11.672;2023-08-21T10:13:36;4.70;;;4.30;;
9481;SDS011;4779;48.062;11.672;2023-08-21T10:16:04;4.72;;;4.30;;
9481;SDS011;4779;48.062;11.672;2023-08-21T10:18:33;4.70;;;4.30;;
9481;SDS011;4779;48.062;11.672;2023-08-21T10:23:47;4.72;;;4.30;;
9481;SDS011;4779;48.062;11.672;2023-08-21T10:26:18;4.85;;;4.45;;
9481;SDS011;4779;48.062;11.672;2023-08-21T10:28:49;5.22;;;4.53;;
9481;SDS011;4779;48.062;11.672;2023-08-21T10:31:27;4.57;;;4.18;;
9481;SDS011;4779;48.062;11.672;2023-08-21T10:33:55;4.43;;;4.10;;
9481;SDS011;4779;48.062;11.672;2023-08-21T10:36:36;4.63;;;4.20;;
9481;SDS011;4779;48.062;11.672;2023-08-21T10:39:22;4.57;;;4.10;;
9481;SDS011;4779;48.062;11.672;2023-08-21T10:41:54;5.10;;;4.60;;
9481;SDS011;4779;48.062;11.672;2023-08-21T10:47:15;4.95;;;4.45;;
9481;SDS011;4779;48.062;11.672;2023-08-21T10:49:43;4.47;;;4.07;;
9481;SDS011;4779;48.062;11.672;2023-08-21T10:52:11;4.93;;;4.53;;
9481;SDS011;4779;48.062;11.672;2023-08-21T10:54:48;6.28;;;4.65;;
9481;SDS011;4779;48.062;11.672;2023-08-21T10:57:17;5.22;;;4.72;;
9481;SDS011;4779;48.062;11.672;2023-08-21T10:59:54;6.10;;;5.00;;
9481;SDS011;4779;48.062;11.672;2023-08-21T11:02:22;5.38;;;4.80;;
9481;SDS011;4779;48.062;11.672;2023-08-21T11:04:50;5.05;;;4.63;;
9481;SDS011;4779;48.062;11.672;2023-08-21T11:07:18;5.10;;;4.70;;
9481;SDS011;4779;48.062;11.672;2023-08-21T11:09:46;4.60;;;4.30;;
9481;SDS011;4779;48.062;11.672;2023-08-21T11:12:14;5.95;;;4.85;;
9481;SDS011;4779;48.062;11.672;2023-08-21T11:14:44;5.28;;;4.57;;
9481;SDS011;4779;48.062;11.672;2023-08-21T11:17:12;4.70;;;4.30;;
9481;SDS011;4779;48.062;11.672;2023-08-21T11:19:40;6.72;;;4.80;;
9481;SDS011;4779;48.062;11.672;2023-08-21T11:22:09;5.00;;;4.53;;
9481;SDS011;4779;48.062;11.672;2023-08-21T11:24:40;6.80;;;5.15;;
9481;SDS011;4779;48.062;11.672;2023-08-21T11:27:08;5.90;;;4.65;;
9481;SDS011;4779;48.062;11.672;2023-08-21T11:29:37;5.28;;;4.78;;
9481;SDS011;4779;48.062;11.672;2023-08-21T11:32:10;5.13;;;4.70;;
9481;SDS011;4779;48.062;11.672;2023-08-21T11:34:39;5.15;;;4.75;;
9481;SDS011;4779;48.062;11.672;2023-08-21T11:37:06;4.55;;;4.25;;
9481;SDS011;4779;48.062;11.672;2023-08-21T11:39:44;6.03;;;4.70;;
9481;SDS011;4779;48.062;11.672;2023-08-21T11:42:11;5.65;;;4.63;;
9481;SDS011;4779;48.062;11.672;2023-08-21T11:44:39;5.10;;;4.60;;
9481;SDS011;4779;48.062;11.672;2023-08-21T11:47:07;6.90;;;4.90;;
9481;SDS011;4779;48.062;11.672;2023-08-21T11:49:37;5.10;;;4.70;;
9481;SDS011;4779;48.062;11.672;2023-08-21T11:52:08;4.72;;;4.35;;
9481;SDS011;4779;48.062;11.672;2023-08-21T11:54:37;5.15;;;4.65;;
9481;SDS011;4779;48.062;11.672;2023-08-21T11:57:06;4.75;;;4.35;;
9481;SDS011;4779;48.062;11.672;2023-08-21T11:59:34;5.15;;;3.83;;
9481;SDS011;4779;48.062;11.672;2023-08-21T12:02:08;5.63;;;4.10;;
9481;SDS011;4779;48.062;11.672;2023-08-21T12:04:38;4.45;;;4.15;;
9481;SDS011;4779;48.062;11.672;2023-08-21T12:07:05;4.80;;;4.40;;
9481;SDS011;4779;48.062;11.672;2023-08-21T12:09:32;5.28;;;4.25;;
9481;SDS011;4779;48.062;11.672;2023-08-21T12:11:59;4.50;;;3.70;;
9481;SDS011;4779;48.062;11.672;2023-08-21T12:14:27;4.40;;;3.90;;
9481;SDS011;4779;48.062;11.672;2023-08-21T12:16:55;4.28;;;3.88;;
9481;SDS011;4779;48.062;11.672;2023-08-21T12:19:22;5.13;;;4.00;;
9481;SDS011;4779;48.062;11.672;2023-08-21T12:21:54;4.38;;;3.97;;
9481;SDS011;4779;48.062;11.672;2023-08-21T12:24:21;6.60;;;4.07;;
9481;SDS011;4779;48.062;11.672;2023-08-21T12:26:48;4.82;;;3.90;;
9481;SDS011;4779;48.062;11.672;2023-08-21T12:29:15;4.53;;;3.78;;
9481;SDS011;4779;48.062;11.672;2023-08-21T12:31:42;4.75;;;3.90;;
9481;SDS011;4779;48.062;11.672;2023-08-21T12:34:09;4.38;;;3.80;;
9481;SDS011;4779;48.062;11.672;2023-08-21T12:36:36;4.10;;;3.80;;
9481;SDS011;4779;48.062;11.672;2023-08-21T12:39:05;4.63;;;4.22;;
9481;SDS011;4779;48.062;11.672;2023-08-21T12:41:32;5.65;;;4.28;;
9481;SDS011;4779;48.062;11.672;2023-08-21T12:43:59;5.00;;;4.40;;
9481;SDS011;4779;48.062;11.672;2023-08-21T12:46:28;5.75;;;4.13;;
9481;SDS011;4779;48.062;11.672;2023-08-21T12:48:55;4.55;;;4.13;;
9481;SDS011;4779;48.062;11.672;2023-08-21T12:51:24;4.78;;;4.38;;
9481;SDS011;4779;48.062;11.672;2023-08-21T12:53:51;4.13;;;3.72;;
9481;SDS011;4779;48.062;11.672;2023-08-21T12:56:20;4.40;;;3.85;;
9481;SDS011;4779;48.062;11.672;2023-08-21T12:58:47;4.90;;;4.40;;
9481;SDS011;4779;48.062;11.672;2023-08-21T13:01:15;5.00;;;4.50;;
9481;SDS011;4779;48.062;11.672;2023-08-21T13:03:43;6.93;;;4.40;;
9481;SDS011;4779;48.062;11.672;2023-08-21T13:06:12;6.60;;;4.30;;
9481;SDS011;4779;48.062;11.672;2023-08-21T13:08:41;4.47;;;4.10;;
9481;SDS011;4779;48.062;11.672;2023-08-21T13:11:08;5.22;;;4.30;;
9481;SDS011;4779;48.062;11.672;2023-08-21T13:13:37;7.60;;;4.63;;
9481;SDS011;4779;48.062;11.672;2023-08-21T13:16:04;5.63;;;5.05;;
9481;SDS011;4779;48.062;11.672;2023-08-21T13:18:31;5.00;;;4.50;;
9481;SDS011;4779;48.062;11.672;2023-08-21T13:20:58;5.05;;;4.55;;
9481;SDS011;4779;48.062;11.672;2023-08-21T13:23:25;4.90;;;4.15;;
9481;SDS011;4779;48.062;11.672;2023-08-21T13:25:54;5.10;;;4.47;;
9481;SDS011;4779;48.062;11.672;2023-08-21T13:28:22;5.40;;;4.82;;
9481;SDS011;4779;48.062;11.672;2023-08-21T13:30:50;5.72;;;4.50;;
9481;SDS011;4779;48.062;11.672;2023-08-21T13:33:18;5.60;;;4.72;;
9481;SDS011;4779;48.062;11.672;2023-08-21T13:35:45;5.25;;;4.75;;
9481;SDS011;4779;48.062;11.672;2023-08-21T13:38:12;4.60;;;4.20;;
9481;SDS011;4779;48.062;11.672;2023-08-21T13:40:40;5.05;;;4.50;;
9481;SDS011;4779;48.062;11.672;2023-08-21T13:43:07;5.22;;;4.72;;
9481;SDS011;4779;48.062;11.672;2023-08-21T13:45:37;5.00;;;4.50;;
9481;SDS011;4779;48.062;11.672;2023-08-21T13:48:06;5.70;;;4.72;;
9481;SDS011;4779;48.062;11.672;2023-08-21T13:50:33;6.20;;;4.22;;
9481;SDS011;4779;48.062;11.672;2023-08-21T13:53:00;5.15;;;4.60;;
9481;SDS011;4779;48.062;11.672;2023-08-21T13:55:27;5.95;;;4.35;;
9481;SDS011;4779;48.062;11.672;2023-08-21T13:57:54;6.68;;;4.25;;
9481;SDS011;4779;48.062;11.672;2023-08-21T14:00:21;4.75;;;4.35;;
9481;SDS011;4779;48.062;11.672;2023-08-21T14:02:49;6.45;;;4.63;;
9481;SDS011;4779;48.062;11.672;2023-08-21T14:05:21;6.05;;;4.18;;
9481;SDS011;4779;48.062;11.672;2023-08-21T14:07:48;4.82;;;4.43;;
9481;SDS011;4779;48.062;11.672;2023-08-21T14:10:15;5.80;;;4.25;;
9481;SDS011;4779;48.062;11.672;2023-08-21T14:12:42;5.65;;;4.30;;
9481;SDS011;4779;48.062;11.672;2023-08-21T14:15:09;4.53;;;4.03;;
9481;SDS011;4779;48.062;11.672;2023-08-21T14:17:36;6.07;;;4.45;;
9481;SDS011;4779;48.062;11.672;2023-08-21T14:20:04;5.18;;;4.32;;
9481;SDS011;4779;48.062;11.672;2023-08-21T14:22:34;7.18;;;4.65;;
9481;SDS011;4779;48.062;11.672;2023-08-21T14:25:01;4.88;;;4.32;;
9481;SDS011;4779;48.062;11.672;2023-08-21T14:27:29;4.72;;;4.32;;
9481;SDS011;4779;48.062;11.672;2023-08-21T14:29:56;5.03;;;4.40;;
9481;SDS011;4779;48.062;11.672;2023-08-21T14:32:23;4.65;;;4.05;;
9481;SDS011;4779;48.062;11.672;2023-08-21T14:34:51;5.32;;;4.57;;
9481;SDS011;4779;48.062;11.672;2023-08-21T14:37:19;5.25;;;4.60;;
9481;SDS011;4779;48.062;11.672;2023-08-21T14:39:50;5.35;;;4.80;;
9481;SDS011;4779;48.062;11.672;2023-08-21T14:42:17;5.68;;;4.97;;
9481;SDS011;4779;48.062;11.672;2023-08-21T14:44:44;8.18;;;5.03;;
9481;SDS011;4779;48.062;11.672;2023-08-21T14:47:11;5.45;;;4.95;;
9481;SDS011;4779;48.062;11.672;2023-08-21T14:49:38;5.32;;;4.65;;
9481;SDS011;4779;48.062;11.672;2023-08-21T14:52:05;8.10;;;4.85;;
9481;SDS011;4779;48.062;11.672;2023-08-21T14:54:33;7.88;;;5.00;;
9481;SDS011;4779;48.062;11.672;2023-08-21T14:57:01;7.00;;;4.90;;
9481;SDS011;4779;48.062;11.672;2023-08-21T14:59:29;5.28;;;4.40;;
9481;SDS011;4779;48.062;11.672;2023-08-21T15:01:56;5.35;;;4.82;;
9481;SDS011;4779;48.062;11.672;2023-08-21T15:04:23;7.25;;;4.85;;
9481;SDS011;4779;48.062;11.672;2023-08-21T15:06:50;6.47;;;4.70;;
9481;SDS011;4779;48.062;11.672;2023-08-21T15:09:17;5.18;;;4.68;;
9481;SDS011;4779;48.062;11.672;2023-08-21T15:11:44;6.05;;;4.57;;